West Yellowstone, Montana
Current Conditions -  °F | °C
As of 2:56 AM on Thursday 29 Jan 2015 (Local Time) from KDIJ Reporting Station
Overcast Overcast  
Wind Chill: 31°   Ceiling: 1200
Heat Index: 31°   Visibility: 10mi
Dew Point: 31°   Wind: 0mph
Humidity: 100%   Direction: NA
Pressure: 30.43"   Gusts: NA
Location:  44.66°N, 111.1°W
Report Text: KDIJ 290956Z AUTO 00000KT 10SM OVC012 M01/M01 A3043 RMK AO2 T10051005 SLP301
Loading
Personal Weather Stations






























Interactive Weather Map New forecast layout! Learn more

10-Day Weather Forecast

Advertisements
Track Severe Weather on mobile